sensor_id;sensor_type;location;lat;lon;timestamp;temperature;humidity
7427;DHT22;3755;59.316;18.092;2023-07-31T00:01:26;15.90;99.90
7427;DHT22;3755;59.316;18.092;2023-07-31T00:03:54;15.90;99.90
7427;DHT22;3755;59.316;18.092;2023-07-31T00:06:21;15.90;99.90
7427;DHT22;3755;59.316;18.092;2023-07-31T00:08:48;15.90;99.90
7427;DHT22;3755;59.316;18.092;2023-07-31T00:11:15;15.90;99.90
7427;DHT22;3755;59.316;18.092;2023-07-31T00:13:43;15.90;99.90
7427;DHT22;3755;59.316;18.092;2023-07-31T00:16:10;15.80;99.90
7427;DHT22;3755;59.316;18.092;2023-07-31T00:18:37;15.90;99.90
7427;DHT22;3755;59.316;18.092;2023-07-31T00:21:05;15.80;99.90
7427;DHT22;3755;59.316;18.092;2023-07-31T00:23:32;15.80;99.90
7427;DHT22;3755;59.316;18.092;2023-07-31T00:26:00;15.90;99.90
7427;DHT22;3755;59.316;18.092;2023-07-31T00:28:27;15.90;99.90
7427;DHT22;3755;59.316;18.092;2023-07-31T00:30:54;15.90;99.90
7427;DHT22;3755;59.316;18.092;2023-07-31T00:33:22;15.90;99.90
7427;DHT22;3755;59.316;18.092;2023-07-31T00:35:49;15.90;99.90
7427;DHT22;3755;59.316;18.092;2023-07-31T00:38:17;15.90;99.90
7427;DHT22;3755;59.316;18.092;2023-07-31T00:40:45;15.80;99.90
7427;DHT22;3755;59.316;18.092;2023-07-31T00:43:12;15.80;99.90
7427;DHT22;3755;59.316;18.092;2023-07-31T00:45:40;15.80;99.90
7427;DHT22;3755;59.316;18.092;2023-07-31T00:48:07;15.90;99.90
7427;DHT22;3755;59.316;18.092;2023-07-31T00:50:35;15.80;99.90
7427;DHT22;3755;59.316;18.092;2023-07-31T00:53:02;15.80;99.90
7427;DHT22;3755;59.316;18.092;2023-07-31T00:55:31;15.80;99.90
7427;DHT22;3755;59.316;18.092;2023-07-31T00:57:58;15.80;99.90
7427;DHT22;3755;59.316;18.092;2023-07-31T01:00:25;15.80;99.90
7427;DHT22;3755;59.316;18.092;2023-07-31T01:02:53;15.80;99.90
7427;DHT22;3755;59.316;18.092;2023-07-31T01:05:28;15.80;99.90
7427;DHT22;3755;59.316;18.092;2023-07-31T01:08:02;15.70;99.90
7427;DHT22;3755;59.316;18.092;2023-07-31T01:10:41;15.70;99.90
7427;DHT22;3755;59.316;18.092;2023-07-31T01:13:13;15.80;99.90
7427;DHT22;3755;59.316;18.092;2023-07-31T01:15:41;15.80;99.90
7427;DHT22;3755;59.316;18.092;2023-07-31T01:18:08;15.70;99.90
7427;DHT22;3755;59.316;18.092;2023-07-31T01:20:36;15.80;99.90
7427;DHT22;3755;59.316;18.092;2023-07-31T01:26:05;15.70;99.90
7427;DHT22;3755;59.316;18.092;2023-07-31T01:28:39;15.70;99.90
7427;DHT22;3755;59.316;18.092;2023-07-31T01:31:08;15.70;99.90
7427;DHT22;3755;59.316;18.092;2023-07-31T01:33:37;15.70;99.90
7427;DHT22;3755;59.316;18.092;2023-07-31T01:36:05;15.60;99.90
7427;DHT22;3755;59.316;18.092;2023-07-31T01:38:32;15.60;99.90
7427;DHT22;3755;59.316;18.092;2023-07-31T01:41:01;15.60;99.90
7427;DHT22;3755;59.316;18.092;2023-07-31T01:43:28;15.60;99.90
7427;DHT22;3755;59.316;18.092;2023-07-31T01:45:55;15.60;99.90
7427;DHT22;3755;59.316;18.092;2023-07-31T01:48:22;15.70;99.90
7427;DHT22;3755;59.316;18.092;2023-07-31T01:50:49;15.70;99.90
7427;DHT22;3755;59.316;18.092;2023-07-31T01:53:16;15.70;99.90
7427;DHT22;3755;59.316;18.092;2023-07-31T01:55:43;15.70;99.90
7427;DHT22;3755;59.316;18.092;2023-07-31T01:58:12;15.70;99.90
7427;DHT22;3755;59.316;18.092;2023-07-31T02:00:39;15.70;99.90
7427;DHT22;3755;59.316;18.092;2023-07-31T02:03:06;15.80;99.90
7427;DHT22;3755;59.316;18.092;2023-07-31T02:05:33;15.80;99.90
7427;DHT22;3755;59.316;18.092;2023-07-31T02:08:00;15.80;99.90
7427;DHT22;3755;59.316;18.092;2023-07-31T02:10:27;15.80;99.90
7427;DHT22;3755;59.316;18.092;2023-07-31T02:12:55;15.80;99.90
7427;DHT22;3755;59.316;18.092;2023-07-31T02:15:24;15.80;99.90
7427;DHT22;3755;59.316;18.092;2023-07-31T02:17:51;15.80;99.90
7427;DHT22;3755;59.316;18.092;2023-07-31T02:20:18;15.80;99.90
7427;DHT22;3755;59.316;18.092;2023-07-31T02:22:46;15.70;99.90
7427;DHT22;3755;59.316;18.092;2023-07-31T02:25:13;15.70;99.90
7427;DHT22;3755;59.316;18.092;2023-07-31T02:27:40;15.70;99.90
7427;DHT22;3755;59.316;18.092;2023-07-31T02:30:08;15.70;99.90
7427;DHT22;3755;59.316;18.092;2023-07-31T02:32:36;15.70;99.90
7427;DHT22;3755;59.316;18.092;2023-07-31T02:35:04;15.60;99.90
7427;DHT22;3755;59.316;18.092;2023-07-31T02:37:32;15.60;99.90
7427;DHT22;3755;59.316;18.092;2023-07-31T02:39:59;15.60;99.90
7427;DHT22;3755;59.316;18.092;2023-07-31T02:42:26;15.50;99.90
7427;DHT22;3755;59.316;18.092;2023-07-31T02:44:53;15.50;99.90
7427;DHT22;3755;59.316;18.092;2023-07-31T02:47:21;15.40;99.90
7427;DHT22;3755;59.316;18.092;2023-07-31T02:49:50;15.40;99.90
7427;DHT22;3755;59.316;18.092;2023-07-31T02:52:17;15.40;99.90
7427;DHT22;3755;59.316;18.092;2023-07-31T02:54:44;15.40;99.90
7427;DHT22;3755;59.316;18.092;2023-07-31T02:57:11;15.40;99.90
7427;DHT22;3755;59.316;18.092;2023-07-31T02:59:38;15.40;99.90
7427;DHT22;3755;59.316;18.092;2023-07-31T03:02:08;15.50;99.90
7427;DHT22;3755;59.316;18.092;2023-07-31T03:04:35;15.50;99.90
7427;DHT22;3755;59.316;18.092;2023-07-31T03:07:04;15.50;99.90
7427;DHT22;3755;59.316;18.092;2023-07-31T03:09:31;15.50;99.90
7427;DHT22;3755;59.316;18.092;2023-07-31T03:11:58;15.50;99.90
7427;DHT22;3755;59.316;18.092;2023-07-31T03:14:26;15.50;99.90
7427;DHT22;3755;59.316;18.092;2023-07-31T03:16:53;15.60;99.90
7427;DHT22;3755;59.316;18.092;2023-07-31T03:19:20;15.60;99.90
7427;DHT22;3755;59.316;18.092;2023-07-31T03:21:47;15.60;99.90
7427;DHT22;3755;59.316;18.092;2023-07-31T03:24:17;15.60;99.90
7427;DHT22;3755;59.316;18.092;2023-07-31T03:26:44;15.60;99.90
7427;DHT22;3755;59.316;18.092;2023-07-31T03:29:11;15.60;99.90
7427;DHT22;3755;59.316;18.092;2023-07-31T03:31:38;15.60;99.90
7427;DHT22;3755;59.316;18.092;2023-07-31T03:34:06;15.70;99.90
7427;DHT22;3755;59.316;18.092;2023-07-31T03:36:33;15.70;99.90
7427;DHT22;3755;59.316;18.092;2023-07-31T03:39:00;15.70;99.90
7427;DHT22;3755;59.316;18.092;2023-07-31T03:41:29;15.70;99.90
7427;DHT22;3755;59.316;18.092;2023-07-31T03:43:56;15.70;99.90
7427;DHT22;3755;59.316;18.092;2023-07-31T03:46:23;15.80;99.90
7427;DHT22;3755;59.316;18.092;2023-07-31T03:48:50;15.80;99.90
7427;DHT22;3755;59.316;18.092;2023-07-31T03:51:18;15.80;99.90
7427;DHT22;3755;59.316;18.092;2023-07-31T03:53:45;15.90;99.90
7427;DHT22;3755;59.316;18.092;2023-07-31T03:56:12;16.00;99.90
7427;DHT22;3755;59.316;18.092;2023-07-31T03:58:41;16.20;99.90
7427;DHT22;3755;59.316;18.092;2023-07-31T04:01:08;16.20;99.90
7427;DHT22;3755;59.316;18.092;2023-07-31T04:03:35;16.10;99.90
7427;DHT22;3755;59.316;18.092;2023-07-31T04:06:02;16.10;99.90
7427;DHT22;3755;59.316;18.092;2023-07-31T04:08:29;16.10;99.90
7427;DHT22;3755;59.316;18.092;2023-07-31T04:10:57;16.00;99.90
7427;DHT22;3755;59.316;18.092;2023-07-31T04:13:25;16.00;99.90
7427;DHT22;3755;59.316;18.092;2023-07-31T04:15:55;16.00;99.90
7427;DHT22;3755;59.316;18.092;2023-07-31T04:18:24;16.00;99.90
7427;DHT22;3755;59.316;18.092;2023-07-31T04:20:52;16.00;99.90
7427;DHT22;3755;59.316;18.092;2023-07-31T04:23:19;16.00;99.90
7427;DHT22;3755;59.316;18.092;2023-07-31T04:25:46;16.00;99.90
7427;DHT22;3755;59.316;18.092;2023-07-31T04:28:13;15.90;99.90
7427;DHT22;3755;59.316;18.092;2023-07-31T04:30:40;15.80;99.90
7427;DHT22;3755;59.316;18.092;2023-07-31T04:33:09;15.80;99.90
7427;DHT22;3755;59.316;18.092;2023-07-31T04:35:36;15.80;99.90
7427;DHT22;3755;59.316;18.092;2023-07-31T04:38:03;15.70;99.90
7427;DHT22;3755;59.316;18.092;2023-07-31T04:40:30;15.80;99.90
7427;DHT22;3755;59.316;18.092;2023-07-31T04:42:57;15.80;99.90
7427;DHT22;3755;59.316;18.092;2023-07-31T04:45:25;15.80;99.90
7427;DHT22;3755;59.316;18.092;2023-07-31T04:47:52;16.00;99.90
7427;DHT22;3755;59.316;18.092;2023-07-31T04:50:20;16.00;99.90
7427;DHT22;3755;59.316;18.092;2023-07-31T04:52:47;16.20;99.90
7427;DHT22;3755;59.316;18.092;2023-07-31T04:55:15;16.30;99.90
7427;DHT22;3755;59.316;18.092;2023-07-31T04:57:42;16.40;99.90
7427;DHT22;3755;59.316;18.092;2023-07-31T05:00:10;16.50;99.90
7427;DHT22;3755;59.316;18.092;2023-07-31T05:02:37;16.40;99.90
7427;DHT22;3755;59.316;18.092;2023-07-31T05:05:04;16.40;99.90
7427;DHT22;3755;59.316;18.092;2023-07-31T05:07:33;16.40;99.90
7427;DHT22;3755;59.316;18.092;2023-07-31T05:10:00;16.50;99.90
7427;DHT22;3755;59.316;18.092;2023-07-31T05:12:27;16.50;99.90
7427;DHT22;3755;59.316;18.092;2023-07-31T05:14:55;16.50;99.90
7427;DHT22;3755;59.316;18.092;2023-07-31T05:17:22;16.40;99.90
7427;DHT22;3755;59.316;18.092;2023-07-31T05:19:49;16.30;99.90
7427;DHT22;3755;59.316;18.092;2023-07-31T05:22:16;16.30;99.90
7427;DHT22;3755;59.316;18.092;2023-07-31T05:24:45;16.30;99.90
7427;DHT22;3755;59.316;18.092;2023-07-31T05:27:12;16.30;99.90
7427;DHT22;3755;59.316;18.092;2023-07-31T05:29:41;16.30;99.90
7427;DHT22;3755;59.316;18.092;2023-07-31T05:32:08;16.40;99.90
7427;DHT22;3755;59.316;18.092;2023-07-31T05:34:35;16.40;99.90
7427;DHT22;3755;59.316;18.092;2023-07-31T05:37:02;16.40;99.90
7427;DHT22;3755;59.316;18.092;2023-07-31T05:39:30;16.40;99.90
7427;DHT22;3755;59.316;18.092;2023-07-31T05:41:58;16.40;99.90
7427;DHT22;3755;59.316;18.092;2023-07-31T05:44:25;16.30;99.90
7427;DHT22;3755;59.316;18.092;2023-07-31T05:46:52;16.30;99.90
7427;DHT22;3755;59.316;18.092;2023-07-31T05:49:20;16.30;99.90
7427;DHT22;3755;59.316;18.092;2023-07-31T05:51:47;16.20;99.90
7427;DHT22;3755;59.316;18.092;2023-07-31T05:54:14;16.10;99.90
7427;DHT22;3755;59.316;18.092;2023-07-31T05:56:41;16.10;99.90
7427;DHT22;3755;59.316;18.092;2023-07-31T05:59:11;16.10;99.90
7427;DHT22;3755;59.316;18.092;2023-07-31T06:01:39;16.10;99.90
7427;DHT22;3755;59.316;18.092;2023-07-31T06:04:06;16.00;99.90
7427;DHT22;3755;59.316;18.092;2023-07-31T06:06:33;15.90;99.90
7427;DHT22;3755;59.316;18.092;2023-07-31T06:09:00;15.90;99.90
7427;DHT22;3755;59.316;18.092;2023-07-31T06:11:29;16.00;99.90
7427;DHT22;3755;59.316;18.092;2023-07-31T06:13:56;15.90;99.90
7427;DHT22;3755;59.316;18.092;2023-07-31T06:16:25;15.90;99.90
7427;DHT22;3755;59.316;18.092;2023-07-31T06:18:53;16.00;99.90
7427;DHT22;3755;59.316;18.092;2023-07-31T06:21:20;16.00;99.90
7427;DHT22;3755;59.316;18.092;2023-07-31T06:23:47;16.10;99.90
7427;DHT22;3755;59.316;18.092;2023-07-31T06:26:14;16.10;99.90
7427;DHT22;3755;59.316;18.092;2023-07-31T06:28:42;16.00;99.90
7427;DHT22;3755;59.316;18.092;2023-07-31T06:31:09;16.00;99.90
7427;DHT22;3755;59.316;18.092;2023-07-31T06:33:38;16.10;99.90
7427;DHT22;3755;59.316;18.092;2023-07-31T06:36:05;16.10;99.90
7427;DHT22;3755;59.316;18.092;2023-07-31T06:38:32;16.10;99.90
7427;DHT22;3755;59.316;18.092;2023-07-31T06:41:00;16.10;99.90
7427;DHT22;3755;59.316;18.092;2023-07-31T06:43:27;16.10;99.90
7427;DHT22;3755;59.316;18.092;2023-07-31T06:45:54;16.10;99.90
7427;DHT22;3755;59.316;18.092;2023-07-31T06:48:21;16.20;99.90
7427;DHT22;3755;59.316;18.092;2023-07-31T06:50:50;16.20;99.90
7427;DHT22;3755;59.316;18.092;2023-07-31T06:53:17;16.30;99.90
7427;DHT22;3755;59.316;18.092;2023-07-31T06:55:44;16.30;99.90
7427;DHT22;3755;59.316;18.092;2023-07-31T06:58:13;16.30;99.90
7427;DHT22;3755;59.316;18.092;2023-07-31T07:00:41;16.30;99.90
7427;DHT22;3755;59.316;18.092;2023-07-31T07:03:08;16.20;99.90
7427;DHT22;3755;59.316;18.092;2023-07-31T07:05:35;16.20;99.90
7427;DHT22;3755;59.316;18.092;2023-07-31T07:08:04;16.10;99.90
7427;DHT22;3755;59.316;18.092;2023-07-31T07:10:31;16.00;99.90
7427;DHT22;3755;59.316;18.092;2023-07-31T07:12:58;15.90;99.90
7427;DHT22;3755;59.316;18.092;2023-07-31T07:15:25;15.70;99.90
7427;DHT22;3755;59.316;18.092;2023-07-31T07:17:52;15.60;99.90
7427;DHT22;3755;59.316;18.092;2023-07-31T07:20:20;15.50;99.90
7427;DHT22;3755;59.316;18.092;2023-07-31T07:22:47;15.50;99.90
7427;DHT22;3755;59.316;18.092;2023-07-31T07:25:16;15.50;99.90
7427;DHT22;3755;59.316;18.092;2023-07-31T07:27:43;15.40;99.90
7427;DHT22;3755;59.316;18.092;2023-07-31T07:30:10;15.30;99.90
7427;DHT22;3755;59.316;18.092;2023-07-31T07:32:37;15.20;99.90
7427;DHT22;3755;59.316;18.092;2023-07-31T07:35:06;15.20;99.90
7427;DHT22;3755;59.316;18.092;2023-07-31T07:37:33;15.20;99.90
7427;DHT22;3755;59.316;18.092;2023-07-31T07:40:01;15.20;99.90
7427;DHT22;3755;59.316;18.092;2023-07-31T07:42:30;15.20;99.90
7427;DHT22;3755;59.316;18.092;2023-07-31T07:44:57;15.20;99.90
7427;DHT22;3755;59.316;18.092;2023-07-31T07:47:24;15.30;99.90
7427;DHT22;3755;59.316;18.092;2023-07-31T07:49:51;15.20;99.90
7427;DHT22;3755;59.316;18.092;2023-07-31T07:52:18;15.20;99.90
7427;DHT22;3755;59.316;18.092;2023-07-31T07:54:46;15.20;99.90
7427;DHT22;3755;59.316;18.092;2023-07-31T07:57:13;15.20;99.90
7427;DHT22;3755;59.316;18.092;2023-07-31T07:59:42;15.10;99.90
7427;DHT22;3755;59.316;18.092;2023-07-31T08:02:09;15.10;99.90
7427;DHT22;3755;59.316;18.092;2023-07-31T08:04:36;15.00;99.90
7427;DHT22;3755;59.316;18.092;2023-07-31T08:07:04;14.90;99.90
7427;DHT22;3755;59.316;18.092;2023-07-31T08:09:31;14.90;99.90
7427;DHT22;3755;59.316;18.092;2023-07-31T08:11:58;14.90;99.90
7427;DHT22;3755;59.316;18.092;2023-07-31T08:14:28;14.80;99.90
7427;DHT22;3755;59.316;18.092;2023-07-31T08:16:57;14.90;99.90
7427;DHT22;3755;59.316;18.092;2023-07-31T08:19:24;14.90;99.90
7427;DHT22;3755;59.316;18.092;2023-07-31T08:21:52;14.90;99.90
7427;DHT22;3755;59.316;18.092;2023-07-31T08:24:19;14.80;99.90
7427;DHT22;3755;59.316;18.092;2023-07-31T08:26:47;14.80;99.90
7427;DHT22;3755;59.316;18.092;2023-07-31T08:29:14;14.70;99.90
7427;DHT22;3755;59.316;18.092;2023-07-31T08:31:41;14.60;99.90
7427;DHT22;3755;59.316;18.092;2023-07-31T08:34:10;14.60;99.90
7427;DHT22;3755;59.316;18.092;2023-07-31T08:36:37;14.60;99.90
7427;DHT22;3755;59.316;18.092;2023-07-31T08:39:04;14.60;99.90
7427;DHT22;3755;59.316;18.092;2023-07-31T08:41:37;14.60;99.90
7427;DHT22;3755;59.316;18.092;2023-07-31T08:44:07;14.80;99.90
7427;DHT22;3755;59.316;18.092;2023-07-31T08:46:35;14.90;99.90
7427;DHT22;3755;59.316;18.092;2023-07-31T08:49:04;14.90;99.90
7427;DHT22;3755;59.316;18.092;2023-07-31T08:51:34;14.90;99.90
7427;DHT22;3755;59.316;18.092;2023-07-31T08:54:01;15.00;99.90
7427;DHT22;3755;59.316;18.092;2023-07-31T08:56:30;15.10;99.90
7427;DHT22;3755;59.316;18.092;2023-07-31T08:58:59;15.20;99.90
7427;DHT22;3755;59.316;18.092;2023-07-31T09:01:30;15.30;99.90
7427;DHT22;3755;59.316;18.092;2023-07-31T09:03:59;15.60;99.90
7427;DHT22;3755;59.316;18.092;2023-07-31T09:06:28;15.80;99.90
7427;DHT22;3755;59.316;18.092;2023-07-31T09:08:58;15.80;99.90
7427;DHT22;3755;59.316;18.092;2023-07-31T09:11:25;16.00;99.90
7427;DHT22;3755;59.316;18.092;2023-07-31T09:13:53;16.20;99.90
7427;DHT22;3755;59.316;18.092;2023-07-31T09:16:27;16.20;99.90
7427;DHT22;3755;59.316;18.092;2023-07-31T09:18:56;16.30;99.90
7427;DHT22;3755;59.316;18.092;2023-07-31T09:21:24;16.60;99.90
7427;DHT22;3755;59.316;18.092;2023-07-31T09:23:54;16.60;99.90
7427;DHT22;3755;59.316;18.092;2023-07-31T09:26:33;16.70;99.90
7427;DHT22;3755;59.316;18.092;2023-07-31T09:29:01;16.80;99.90
7427;DHT22;3755;59.316;18.092;2023-07-31T09:31:40;16.90;99.90
7427;DHT22;3755;59.316;18.092;2023-07-31T09:34:08;17.10;99.90
7427;DHT22;3755;59.316;18.092;2023-07-31T09:36:40;17.20;99.90
7427;DHT22;3755;59.316;18.092;2023-07-31T09:39:09;17.10;99.90
7427;DHT22;3755;59.316;18.092;2023-07-31T09:41:38;17.30;99.90
7427;DHT22;3755;59.316;18.092;2023-07-31T09:44:06;17.50;99.90
7427;DHT22;3755;59.316;18.092;2023-07-31T09:46:35;17.70;99.90
7427;DHT22;3755;59.316;18.092;2023-07-31T09:49:05;17.80;99.90
7427;DHT22;3755;59.316;18.092;2023-07-31T09:51:33;17.90;99.90
7427;DHT22;3755;59.316;18.092;2023-07-31T09:54:08;17.90;99.90
7427;DHT22;3755;59.316;18.092;2023-07-31T09:56:41;18.00;99.90
7427;DHT22;3755;59.316;18.092;2023-07-31T09:59:11;18.00;99.90
7427;DHT22;3755;59.316;18.092;2023-07-31T10:01:39;17.90;99.90
7427;DHT22;3755;59.316;18.092;2023-07-31T10:04:09;17.60;99.90
7427;DHT22;3755;59.316;18.092;2023-07-31T10:06:38;17.80;99.90
7427;DHT22;3755;59.316;18.092;2023-07-31T10:09:07;17.80;99.90
7427;DHT22;3755;59.316;18.092;2023-07-31T10:11:41;17.80;99.90
7427;DHT22;3755;59.316;18.092;2023-07-31T10:14:09;17.70;99.90
7427;DHT22;3755;59.316;18.092;2023-07-31T10:16:38;17.60;99.90
7427;DHT22;3755;59.316;18.092;2023-07-31T10:19:07;17.60;99.90
7427;DHT22;3755;59.316;18.092;2023-07-31T10:21:35;17.50;99.90
7427;DHT22;3755;59.316;18.092;2023-07-31T10:24:04;17.60;99.90
7427;DHT22;3755;59.316;18.092;2023-07-31T10:26:32;17.30;99.90
7427;DHT22;3755;59.316;18.092;2023-07-31T10:29:02;17.40;99.90
7427;DHT22;3755;59.316;18.092;2023-07-31T10:31:31;17.50;99.90
7427;DHT22;3755;59.316;18.092;2023-07-31T10:33:58;17.50;99.90
7427;DHT22;3755;59.316;18.092;2023-07-31T10:36:30;17.60;99.90
7427;DHT22;3755;59.316;18.092;2023-07-31T10:38:57;17.50;99.90
7427;DHT22;3755;59.316;18.092;2023-07-31T10:41:33;17.60;99.90
7427;DHT22;3755;59.316;18.092;2023-07-31T10:44:07;17.70;99.90
7427;DHT22;3755;59.316;18.092;2023-07-31T10:46:34;17.70;99.90
7427;DHT22;3755;59.316;18.092;2023-07-31T10:49:02;17.80;99.90
7427;DHT22;3755;59.316;18.092;2023-07-31T10:51:33;17.70;99.90
7427;DHT22;3755;59.316;18.092;2023-07-31T10:54:12;17.70;99.90
7427;DHT22;3755;59.316;18.092;2023-07-31T10:56:44;17.70;99.90
7427;DHT22;3755;59.316;18.092;2023-07-31T10:59:14;17.70;99.90
7427;DHT22;3755;59.316;18.092;2023-07-31T11:01:54;17.70;99.90
7427;DHT22;3755;59.316;18.092;2023-07-31T11:04:24;17.70;99.90
7427;DHT22;3755;59.316;18.092;2023-07-31T11:06:57;17.70;99.90
7427;DHT22;3755;59.316;18.092;2023-07-31T11:09:28;17.70;99.90
7427;DHT22;3755;59.316;18.092;2023-07-31T11:11:56;17.90;99.90
7427;DHT22;3755;59.316;18.092;2023-07-31T11:14:25;17.90;99.90
7427;DHT22;3755;59.316;18.092;2023-07-31T11:16:52;17.90;99.90
7427;DHT22;3755;59.316;18.092;2023-07-31T11:19:23;17.80;99.90
7427;DHT22;3755;59.316;18.092;2023-07-31T11:21:51;17.70;99.90
7427;DHT22;3755;59.316;18.092;2023-07-31T11:24:18;17.70;99.90
7427;DHT22;3755;59.316;18.092;2023-07-31T11:26:50;18.00;99.90
7427;DHT22;3755;59.316;18.092;2023-07-31T11:29:17;18.20;99.90
7427;DHT22;3755;59.316;18.092;2023-07-31T11:31:47;18.30;99.90
7427;DHT22;3755;59.316;18.092;2023-07-31T11:34:15;18.40;99.90
7427;DHT22;3755;59.316;18.092;2023-07-31T11:36:53;18.30;99.90
7427;DHT22;3755;59.316;18.092;2023-07-31T11:39:20;18.30;99.90
7427;DHT22;3755;59.316;18.092;2023-07-31T11:41:47;18.20;99.90
7427;DHT22;3755;59.316;18.092;2023-07-31T11:44:15;18.10;99.90
7427;DHT22;3755;59.316;18.092;2023-07-31T11:46:42;18.00;99.90
7427;DHT22;3755;59.316;18.092;2023-07-31T11:49:11;18.00;99.90
7427;DHT22;3755;59.316;18.092;2023-07-31T11:51:39;17.70;99.90
7427;DHT22;3755;59.316;18.092;2023-07-31T11:54:07;17.60;99.90
7427;DHT22;3755;59.316;18.092;2023-07-31T11:56:34;17.50;99.90
7427;DHT22;3755;59.316;18.092;2023-07-31T11:59:02;17.40;99.90
7427;DHT22;3755;59.316;18.092;2023-07-31T12:01:31;17.30;99.90
7427;DHT22;3755;59.316;18.092;2023-07-31T12:03:59;17.30;99.90
7427;DHT22;3755;59.316;18.092;2023-07-31T12:06:34;17.20;99.90
7427;DHT22;3755;59.316;18.092;2023-07-31T12:09:03;17.10;99.90
7427;DHT22;3755;59.316;18.092;2023-07-31T12:11:30;17.10;99.90
7427;DHT22;3755;59.316;18.092;2023-07-31T12:13:58;17.00;99.90
7427;DHT22;3755;59.316;18.092;2023-07-31T12:16:26;17.00;99.90
7427;DHT22;3755;59.316;18.092;2023-07-31T12:18:55;17.10;99.90
7427;DHT22;3755;59.316;18.092;2023-07-31T12:21:22;17.00;99.90
7427;DHT22;3755;59.316;18.092;2023-07-31T12:23:51;16.90;99.90
7427;DHT22;3755;59.316;18.092;2023-07-31T12:26:20;16.90;99.90
7427;DHT22;3755;59.316;18.092;2023-07-31T12:28:50;16.80;99.90
7427;DHT22;3755;59.316;18.092;2023-07-31T12:31:19;16.80;99.90
7427;DHT22;3755;59.316;18.092;2023-07-31T12:33:49;16.90;99.90
7427;DHT22;3755;59.316;18.092;2023-07-31T12:36:17;16.90;99.90
7427;DHT22;3755;59.316;18.092;2023-07-31T12:38:45;16.70;99.90
7427;DHT22;3755;59.316;18.092;2023-07-31T12:41:14;16.70;99.90
7427;DHT22;3755;59.316;18.092;2023-07-31T12:43:42;16.70;99.90
7427;DHT22;3755;59.316;18.092;2023-07-31T12:46:10;16.70;99.90
7427;DHT22;3755;59.316;18.092;2023-07-31T12:48:37;16.70;99.90
7427;DHT22;3755;59.316;18.092;2023-07-31T12:51:05;16.60;99.90
7427;DHT22;3755;59.316;18.092;2023-07-31T12:53:33;16.30;99.90
7427;DHT22;3755;59.316;18.092;2023-07-31T12:56:01;16.20;99.90
7427;DHT22;3755;59.316;18.092;2023-07-31T12:58:30;16.30;99.90
7427;DHT22;3755;59.316;18.092;2023-07-31T13:00:57;16.40;99.90
7427;DHT22;3755;59.316;18.092;2023-07-31T13:03:24;16.60;99.90
7427;DHT22;3755;59.316;18.092;2023-07-31T13:05:52;16.80;99.90
7427;DHT22;3755;59.316;18.092;2023-07-31T13:08:20;17.00;99.90
7427;DHT22;3755;59.316;18.092;2023-07-31T13:10:47;17.00;99.90
7427;DHT22;3755;59.316;18.092;2023-07-31T13:13:14;17.00;99.90
7427;DHT22;3755;59.316;18.092;2023-07-31T13:15:43;17.00;99.90
7427;DHT22;3755;59.316;18.092;2023-07-31T13:18:11;17.10;99.90
7427;DHT22;3755;59.316;18.092;2023-07-31T13:20:40;17.10;99.90
7427;DHT22;3755;59.316;18.092;2023-07-31T13:23:07;17.20;99.90
7427;DHT22;3755;59.316;18.092;2023-07-31T13:25:34;17.30;99.90
7427;DHT22;3755;59.316;18.092;2023-07-31T13:28:02;17.30;99.90
7427;DHT22;3755;59.316;18.092;2023-07-31T13:30:30;17.40;99.90
7427;DHT22;3755;59.316;18.092;2023-07-31T13:32:59;17.40;99.90
7427;DHT22;3755;59.316;18.092;2023-07-31T13:35:26;17.50;99.90
7427;DHT22;3755;59.316;18.092;2023-07-31T13:37:53;17.50;99.90
7427;DHT22;3755;59.316;18.092;2023-07-31T13:40:21;17.40;99.90
7427;DHT22;3755;59.316;18.092;2023-07-31T13:42:49;17.30;99.90
7427;DHT22;3755;59.316;18.092;2023-07-31T13:45:16;17.20;99.90
7427;DHT22;3755;59.316;18.092;2023-07-31T13:47:44;17.10;99.90
7427;DHT22;3755;59.316;18.092;2023-07-31T13:50:12;17.10;99.90
7427;DHT22;3755;59.316;18.092;2023-07-31T13:52:40;17.10;99.90
7427;DHT22;3755;59.316;18.092;2023-07-31T13:55:08;17.00;99.90
7427;DHT22;3755;59.316;18.092;2023-07-31T13:57:35;17.00;99.90
7427;DHT22;3755;59.316;18.092;2023-07-31T14:00:03;17.00;99.90
7427;DHT22;3755;59.316;18.092;2023-07-31T14:02:30;17.00;99.90
7427;DHT22;3755;59.316;18.092;2023-07-31T14:04:57;16.90;99.90
7427;DHT22;3755;59.316;18.092;2023-07-31T14:07:26;16.90;99.90
7427;DHT22;3755;59.316;18.092;2023-07-31T14:09:53;16.70;99.90
7427;DHT22;3755;59.316;18.092;2023-07-31T14:12:20;16.60;99.90
7427;DHT22;3755;59.316;18.092;2023-07-31T14:14:48;16.40;99.90
7427;DHT22;3755;59.316;18.092;2023-07-31T14:17:15;16.30;99.90
7427;DHT22;3755;59.316;18.092;2023-07-31T14:19:42;16.30;99.90
7427;DHT22;3755;59.316;18.092;2023-07-31T14:22:10;16.30;99.90
7427;DHT22;3755;59.316;18.092;2023-07-31T14:24:38;16.20;99.90
7427;DHT22;3755;59.316;18.092;2023-07-31T14:27:05;16.20;99.90
7427;DHT22;3755;59.316;18.092;2023-07-31T14:29:32;16.10;99.90
7427;DHT22;3755;59.316;18.092;2023-07-31T14:32:00;16.00;99.90
7427;DHT22;3755;59.316;18.092;2023-07-31T14:34:27;16.00;99.90
7427;DHT22;3755;59.316;18.092;2023-07-31T14:36:54;15.90;99.90
7427;DHT22;3755;59.316;18.092;2023-07-31T14:39:21;15.80;99.90
7427;DHT22;3755;59.316;18.092;2023-07-31T14:41:50;15.80;99.90
7427;DHT22;3755;59.316;18.092;2023-07-31T14:44:17;15.80;99.90
7427;DHT22;3755;59.316;18.092;2023-07-31T14:46:44;15.70;99.90
7427;DHT22;3755;59.316;18.092;2023-07-31T14:49:12;15.70;99.90
7427;DHT22;3755;59.316;18.092;2023-07-31T14:51:39;15.70;99.90
7427;DHT22;3755;59.316;18.092;2023-07-31T14:54:06;15.60;99.90
7427;DHT22;3755;59.316;18.092;2023-07-31T14:56:33;15.70;99.90
7427;DHT22;3755;59.316;18.092;2023-07-31T14:59:02;15.70;99.90
7427;DHT22;3755;59.316;18.092;2023-07-31T15:01:29;15.70;99.90
7427;DHT22;3755;59.316;18.092;2023-07-31T15:03:57;15.70;99.90
7427;DHT22;3755;59.316;18.092;2023-07-31T15:06:24;15.60;99.90
7427;DHT22;3755;59.316;18.092;2023-07-31T15:08:52;15.70;99.90
7427;DHT22;3755;59.316;18.092;2023-07-31T15:11:19;15.70;99.90
7427;DHT22;3755;59.316;18.092;2023-07-31T15:13:47;15.80;99.90
7427;DHT22;3755;59.316;18.092;2023-07-31T15:16:16;15.80;99.90
7427;DHT22;3755;59.316;18.092;2023-07-31T15:18:45;15.80;99.90
7427;DHT22;3755;59.316;18.092;2023-07-31T15:21:12;15.80;99.90
7427;DHT22;3755;59.316;18.092;2023-07-31T15:23:40;15.90;99.90
7427;DHT22;3755;59.316;18.092;2023-07-31T15:26:07;15.90;99.90
7427;DHT22;3755;59.316;18.092;2023-07-31T15:28:34;16.00;99.90
7427;DHT22;3755;59.316;18.092;2023-07-31T15:31:03;16.10;99.90
7427;DHT22;3755;59.316;18.092;2023-07-31T15:33:31;16.10;99.90
7427;DHT22;3755;59.316;18.092;2023-07-31T15:35:58;16.20;99.90
7427;DHT22;3755;59.316;18.092;2023-07-31T15:38:26;16.20;99.90
7427;DHT22;3755;59.316;18.092;2023-07-31T15:40:53;16.20;99.90
7427;DHT22;3755;59.316;18.092;2023-07-31T15:43:21;16.20;99.90
7427;DHT22;3755;59.316;18.092;2023-07-31T15:45:49;16.30;99.90
7427;DHT22;3755;59.316;18.092;2023-07-31T15:48:16;16.30;99.90
7427;DHT22;3755;59.316;18.092;2023-07-31T15:50:46;16.30;99.90
7427;DHT22;3755;59.316;18.092;2023-07-31T15:53:13;16.30;99.90